Time;durP1;ratioP1;P1;durP2;ratioP2;P2;SDS_P1;SDS_P2;PMS_P1;PMS_P2;Temp;Humidity;BMP_temperature;BMP_pressure;BME280_temperature;BME280_humidity;BME280_pressure;Samples;Min_cycle;Max_cycle;Signal;HPM_P1;HPM_P2
2024/03/29 00:01:24;;;;;;;3.10;0.00;;;9.20;99.90;;;;;;5012427;28;20044;-75
2024/03/29 00:03:49;;;;;;;2.72;0.32;;;9.20;99.90;;;;;;5010039;28;20022;-76
2024/03/29 00:06:15;;;;;;;1.48;0.00;;;9.20;99.90;;;;;;5010867;28;20555;-76
2024/03/29 00:08:40;;;;;;;2.28;0.00;;;9.20;99.90;;;;;;5009021;28;20072;-77
2024/03/29 00:11:06;;;;;;;4.07;0.08;;;9.10;99.90;;;;;;5011377;28;20606;-76
2024/03/29 00:13:32;;;;;;;4.47;0.28;;;9.10;99.90;;;;;;5009641;28;20454;-76
2024/03/29 00:15:57;;;;;;;3.88;0.00;;;9.30;99.90;;;;;;5009793;28;20084;-76
2024/03/29 00:18:23;;;;;;;5.07;0.52;;;9.10;99.90;;;;;;5010044;28;20032;-77
2024/03/29 00:20:49;;;;;;;10.18;0.38;;;9.10;99.90;;;;;;5011078;28;20030;-77
2024/03/29 00:23:14;;;;;;;2.83;0.00;;;9.10;99.90;;;;;;5009915;28;20030;-76
2024/03/29 00:25:40;;;;;;;2.20;0.38;;;9.10;99.90;;;;;;5010652;28;20084;-76
2024/03/29 00:28:06;;;;;;;2.90;0.00;;;9.10;99.90;;;;;;5009798;28;20034;-76
2024/03/29 00:30:32;;;;;;;5.47;0.00;;;9.10;99.90;;;;;;5008833;28;20034;-76
2024/03/29 00:33:00;;;;;;;3.47;0.35;;;9.20;99.90;;;;;;5009610;28;20053;-75
2024/03/29 00:35:26;;;;;;;2.80;0.00;;;9.10;99.90;;;;;;5013726;28;20026;-76
2024/03/29 00:37:52;;;;;;;6.53;0.00;;;9.10;99.90;;;;;;5012435;28;20057;-76
2024/03/29 00:40:17;;;;;;;5.85;0.00;;;9.80;99.90;;;;;;5010932;28;20022;-75
2024/03/29 00:42:43;;;;;;;3.33;0.00;;;9.10;99.90;;;;;;5008570;28;20494;-75
2024/03/29 00:45:09;;;;;;;1.55;0.25;;;9.10;99.90;;;;;;5008257;28;20034;-76
2024/03/29 00:47:35;;;;;;;1.33;0.00;;;9.00;99.90;;;;;;5010195;28;20029;-76
2024/03/29 00:50:01;;;;;;;2.00;0.00;;;9.00;99.90;;;;;;5008353;28;20057;-76
2024/03/29 00:52:26;;;;;;;4.75;0.22;;;8.90;99.90;;;;;;5009757;28;20034;-76
2024/03/29 00:54:52;;;;;;;1.40;0.10;;;8.90;99.90;;;;;;5008437;28;20037;-76
2024/03/29 00:57:18;;;;;;;2.60;0.00;;;9.40;99.90;;;;;;5009823;28;20092;-77
2024/03/29 00:59:44;;;;;;;1.27;0.00;;;8.80;99.90;;;;;;5011194;28;20492;-77
2024/03/29 01:02:10;;;;;;;1.63;0.00;;;8.70;99.90;;;;;;5009143;28;20038;-76
2024/03/29 01:04:37;;;;;;;4.32;0.15;;;8.60;99.90;;;;;;5009308;28;20049;-76
2024/03/29 01:07:04;;;;;;;4.88;0.00;;;;;;;;;;5009474;28;20044;-76
2024/03/29 01:09:29;;;;;;;7.13;0.00;;;8.50;99.90;;;;;;5009349;28;20080;-77
2024/03/29 01:11:55;;;;;;;1.30;0.00;;;8.50;99.90;;;;;;5009432;28;20026;-76
2024/03/29 01:14:21;;;;;;;3.67;0.20;;;8.40;99.90;;;;;;5008901;28;20460;-77
2024/03/29 01:16:47;;;;;;;2.67;0.00;;;8.40;99.90;;;;;;5010825;28;20049;-76
2024/03/29 01:19:13;;;;;;;2.03;0.00;;;8.40;99.90;;;;;;5009784;28;20494;-76
2024/03/29 01:21:39;;;;;;;5.20;0.10;;;8.40;99.90;;;;;;5009457;28;20034;-76
2024/03/29 01:24:04;;;;;;;2.38;0.00;;;8.40;99.90;;;;;;5008911;28;20517;-76
2024/03/29 01:26:30;;;;;;;2.83;0.00;;;8.40;99.90;;;;;;5008832;28;20040;-77
2024/03/29 01:28:56;;;;;;;3.60;0.00;;;8.40;99.90;;;;;;5008585;28;20022;-76
2024/03/29 01:31:23;;;;;;;0.65;0.00;;;8.40;99.90;;;;;;5010269;28;20057;-77
2024/03/29 01:33:49;;;;;;;0.85;0.00;;;8.40;99.90;;;;;;5005145;28;20029;-77
2024/03/29 01:36:15;;;;;;;0.85;0.00;;;8.60;99.90;;;;;;5009677;28;20109;-77
2024/03/29 01:38:40;;;;;;;0.93;0.00;;;8.40;99.90;;;;;;5008378;28;20113;-76
2024/03/29 01:41:06;;;;;;;2.15;0.00;;;;;;;;;;5008295;28;20096;-76
2024/03/29 01:43:32;;;;;;;4.72;0.15;;;8.40;99.90;;;;;;5008665;28;20076;-76
2024/03/29 01:45:58;;;;;;;1.48;0.03;;;8.40;99.90;;;;;;5009587;28;20033;-76
2024/03/29 01:48:26;;;;;;;1.42;0.10;;;8.40;99.90;;;;;;5008836;28;20040;-77
2024/03/29 01:50:55;;;;;;;2.87;0.00;;;9.00;99.90;;;;;;5008768;28;20069;-77
2024/03/29 01:53:22;;;;;;;1.20;0.00;;;8.40;99.90;;;;;;5008557;28;20026;-76
2024/03/29 01:55:47;;;;;;;5.05;0.60;;;8.30;99.90;;;;;;5008015;28;20025;-77
2024/03/29 01:58:14;;;;;;;1.00;0.00;;;8.40;99.90;;;;;;5008937;28;20076;-76
2024/03/29 02:00:46;;;;;;;3.63;0.40;;;8.40;99.90;;;;;;5007818;28;20084;-76
2024/03/29 02:03:14;;;;;;;1.27;0.00;;;8.40;99.90;;;;;;5008921;28;20405;-76
2024/03/29 02:05:40;;;;;;;0.95;0.03;;;8.40;99.90;;;;;;5011530;28;20154;-76
2024/03/29 02:08:07;;;;;;;2.95;0.20;;;8.40;99.90;;;;;;5010871;28;20485;-76
2024/03/29 02:10:37;;;;;;;1.30;0.10;;;8.30;99.90;;;;;;5011014;28;20033;-76
2024/03/29 02:13:04;;;;;;;2.50;0.00;;;8.40;99.90;;;;;;5010824;28;20513;-76
2024/03/29 02:15:30;;;;;;;2.55;0.35;;;8.30;99.90;;;;;;5014999;28;20489;-77
2024/03/29 02:17:57;;;;;;;1.77;0.30;;;8.30;99.90;;;;;;5012191;28;20516;-77
2024/03/29 02:20:24;;;;;;;2.13;0.00;;;9.40;99.90;;;;;;5014597;28;20017;-77
2024/03/29 02:23:19;;;;;;;4.32;0.00;;;8.20;99.90;;;;;;5012030;28;20149;-77
2024/03/29 02:25:45;;;;;;;3.88;0.00;;;8.10;99.90;;;;;;5008455;28;20038;-77
2024/03/29 02:28:11;;;;;;;3.25;0.00;;;8.20;99.90;;;;;;5012305;28;20037;-76
2024/03/29 02:30:36;;;;;;;5.90;0.52;;;8.20;99.90;;;;;;5013630;28;20057;-76
2024/03/29 02:33:02;;;;;;;3.00;0.10;;;8.10;99.90;;;;;;5011713;28;20061;-76
2024/03/29 02:35:29;;;;;;;2.60;0.00;;;8.10;99.90;;;;;;5013306;28;20029;-76
2024/03/29 02:37:54;;;;;;;2.20;0.22;;;8.10;99.90;;;;;;5010127;28;20390;-76
2024/03/29 02:40:20;;;;;;;2.42;0.20;;;8.40;99.90;;;;;;5013095;28;20022;-76
2024/03/29 02:42:49;;;;;;;1.35;0.10;;;8.00;99.90;;;;;;5011795;28;20029;-77
2024/03/29 02:45:16;;;;;;;2.65;0.00;;;8.10;99.90;;;;;;5013292;28;20018;-76
2024/03/29 02:47:41;;;;;;;2.38;0.00;;;8.00;99.90;;;;;;5010722;28;20041;-77
2024/03/29 02:50:10;;;;;;;3.30;0.10;;;8.00;99.90;;;;;;5010313;28;20030;-76
2024/03/29 02:52:36;;;;;;;3.10;0.22;;;8.00;99.90;;;;;;5009543;28;20034;-76
2024/03/29 02:55:02;;;;;;;1.33;0.00;;;8.00;99.90;;;;;;5009905;28;20022;-76
2024/03/29 02:57:28;;;;;;;2.05;0.00;;;8.00;99.90;;;;;;5011750;28;20029;-77
2024/03/29 02:59:53;;;;;;;3.22;0.52;;;8.00;99.90;;;;;;5011020;28;20072;-77
2024/03/29 03:02:19;;;;;;;0.30;0.03;;;8.00;99.90;;;;;;5011582;28;20057;-77
2024/03/29 03:04:45;;;;;;;2.38;0.00;;;8.00;99.90;;;;;;5011519;28;20040;-76
2024/03/29 03:12:39;;;;;;;3.45;0.20;;;8.00;99.90;;;;;;5011897;28;20175;-77
2024/03/29 03:15:05;;;;;;;0.52;0.00;;;8.00;99.90;;;;;;5009357;28;20561;-77
2024/03/29 03:17:31;;;;;;;2.95;0.43;;;8.10;99.90;;;;;;5011098;28;20026;-76
2024/03/29 03:19:57;;;;;;;1.85;0.25;;;8.10;99.90;;;;;;5009414;28;20026;-77
2024/03/29 03:22:23;;;;;;;2.10;0.00;;;8.10;99.90;;;;;;5009810;28;20499;-77
2024/03/29 03:24:49;;;;;;;0.75;0.00;;;8.10;99.90;;;;;;5009634;28;20398;-76
2024/03/29 03:27:15;;;;;;;1.45;0.00;;;8.10;99.90;;;;;;5011290;28;20033;-77
2024/03/29 03:29:40;;;;;;;2.03;0.05;;;8.10;99.90;;;;;;5011272;28;20044;-76
2024/03/29 03:32:06;;;;;;;1.15;0.08;;;8.10;99.90;;;;;;5011815;28;20444;-76
2024/03/29 03:34:33;;;;;;;0.75;0.00;;;8.20;99.90;;;;;;5009327;28;20026;-77
2024/03/29 03:37:01;;;;;;;4.82;0.00;;;8.20;99.90;;;;;;5012713;28;20179;-77
2024/03/29 03:39:28;;;;;;;1.40;0.00;;;8.30;99.90;;;;;;5010581;28;20058;-76
2024/03/29 03:41:56;;;;;;;2.22;0.00;;;8.20;99.90;;;;;;5012875;28;20022;-77
2024/03/29 03:44:24;;;;;;;1.35;0.00;;;8.30;99.90;;;;;;5010926;28;20042;-76
2024/03/29 03:46:50;;;;;;;1.13;0.15;;;;;;;;;;5013518;28;20124;-75
2024/03/29 03:49:16;;;;;;;2.00;0.00;;;8.40;99.90;;;;;;5014020;28;20405;-75
2024/03/29 03:51:41;;;;;;;6.38;0.47;;;8.50;99.90;;;;;;5013377;28;20029;-76
2024/03/29 03:54:07;;;;;;;2.03;0.00;;;8.50;99.90;;;;;;5013727;28;20033;-75
2024/03/29 03:56:32;;;;;;;0.63;0.00;;;8.50;99.90;;;;;;5015453;28;20246;-75
2024/03/29 03:58:59;;;;;;;2.35;0.15;;;8.60;99.90;;;;;;5015033;28;20030;-75
2024/03/29 04:01:25;;;;;;;0.35;0.00;;;8.60;99.90;;;;;;5015900;28;20025;-75
2024/03/29 04:03:51;;;;;;;3.65;0.00;;;;;;;;;;5013428;28;20099;-74
2024/03/29 04:06:17;;;;;;;0.77;0.00;;;8.60;99.90;;;;;;5013963;28;20030;-75
2024/03/29 04:08:45;;;;;;;3.10;0.00;;;8.60;99.90;;;;;;5014336;28;20174;-76
2024/03/29 04:11:11;;;;;;;;;;;8.70;99.90;;;;;;5013551;28;20856;-75
2024/03/29 04:13:38;;;;;;;2.65;0.00;;;8.70;99.90;;;;;;5013157;28;19947;-76
2024/03/29 04:16:06;;;;;;;0.90;0.10;;;8.70;99.90;;;;;;5014014;28;20026;-76
2024/03/29 04:18:35;;;;;;;0.88;0.00;;;8.70;99.90;;;;;;5013014;28;20029;-75
2024/03/29 04:21:02;;;;;;;0.70;0.00;;;8.70;99.90;;;;;;5013854;28;20516;-76
2024/03/29 04:23:28;;;;;;;0.85;0.00;;;8.80;99.90;;;;;;5012548;28;20104;-75
2024/03/29 04:25:55;;;;;;;1.80;0.00;;;9.40;99.90;;;;;;5010398;28;20030;-74
2024/03/29 04:28:21;;;;;;;2.83;0.00;;;8.90;99.90;;;;;;5010618;28;20049;-74
2024/03/29 04:30:57;;;;;;;0.73;0.00;;;8.80;99.90;;;;;;5008227;28;20057;-74
2024/03/29 04:33:23;;;;;;;2.50;0.30;;;8.80;99.90;;;;;;5008633;28;20033;-73
2024/03/29 04:35:59;;;;;;;1.20;0.00;;;8.90;99.90;;;;;;5011246;28;20026;-75
2024/03/29 04:38:26;;;;;;;2.50;0.28;;;8.90;99.90;;;;;;5009797;28;20026;-73
2024/03/29 04:40:55;;;;;;;1.45;0.10;;;8.90;99.90;;;;;;5011201;28;20022;-74
2024/03/29 04:43:21;;;;;;;;;;;8.90;99.90;;;;;;5013410;28;20146;-73
2024/03/29 04:45:47;;;;;;;1.65;0.00;;;8.90;99.90;;;;;;5010058;28;19945;-73
2024/03/29 04:48:13;;;;;;;1.50;0.00;;;9.00;99.90;;;;;;5012234;28;20065;-75
2024/03/29 04:50:39;;;;;;;1.88;0.10;;;9.00;99.90;;;;;;5010956;28;20548;-72
2024/03/29 04:53:05;;;;;;;0.00;0.00;;;9.00;99.90;;;;;;5009373;28;20025;-73
2024/03/29 04:55:31;;;;;;;0.00;0.00;;;9.00;99.90;;;;;;5010859;28;20022;-73
2024/03/29 04:57:56;;;;;;;0.25;0.00;;;9.00;99.90;;;;;;5013005;28;20033;-74
2024/03/29 05:00:25;;;;;;;0.00;0.00;;;9.00;99.90;;;;;;5010728;28;20027;-74
2024/03/29 05:02:51;;;;;;;0.10;0.00;;;9.00;99.90;;;;;;5010324;28;20414;-76
2024/03/29 05:05:16;;;;;;;0.30;0.00;;;9.00;99.90;;;;;;5010950;28;20022;-76
2024/03/29 05:07:42;;;;;;;0.35;0.00;;;8.90;99.90;;;;;;5012675;28;20409;-78
2024/03/29 05:10:09;;;;;;;0.15;0.00;;;9.00;99.90;;;;;;5010732;28;20096;-78
2024/03/29 05:12:35;;;;;;;0.20;0.00;;;9.00;99.90;;;;;;5011083;28;20172;-77
2024/03/29 05:15:01;;;;;;;3.63;0.00;;;8.90;99.90;;;;;;5009400;28;20064;-73
2024/03/29 05:17:27;;;;;;;0.00;0.00;;;8.90;99.90;;;;;;5011523;28;20473;-73
2024/03/29 05:19:54;;;;;;;0.20;0.00;;;8.90;99.90;;;;;;5013887;28;20553;-75
2024/03/29 05:22:19;;;;;;;0.10;0.00;;;8.90;99.90;;;;;;5013322;28;20018;-74
2024/03/29 05:24:45;;;;;;;0.90;0.22;;;8.90;99.90;;;;;;5013802;28;20022;-75
2024/03/29 05:27:14;;;;;;;0.43;0.00;;;8.90;99.90;;;;;;5013328;28;20030;-75
2024/03/29 05:29:40;;;;;;;0.98;0.00;;;8.80;99.90;;;;;;5013259;28;20033;-75
2024/03/29 05:32:07;;;;;;;1.42;0.00;;;8.80;99.90;;;;;;5013007;28;20034;-75
2024/03/29 05:34:33;;;;;;;2.67;0.00;;;8.70;99.90;;;;;;5011751;28;20179;-74
2024/03/29 05:37:00;;;;;;;0.10;0.00;;;8.70;99.90;;;;;;5012228;28;20037;-75
2024/03/29 05:39:25;;;;;;;0.68;0.00;;;8.60;99.90;;;;;;5014262;28;20025;-74
2024/03/29 05:41:51;;;;;;;0.55;0.00;;;8.50;99.90;;;;;;5018159;28;20026;-74
2024/03/29 05:44:17;;;;;;;1.25;0.00;;;8.50;99.90;;;;;;5016229;28;20543;-75
2024/03/29 05:46:43;;;;;;;0.10;0.00;;;8.40;99.90;;;;;;5015847;28;20121;-76
2024/03/29 05:49:08;;;;;;;0.03;0.00;;;8.40;99.90;;;;;;5016979;28;20026;-75
2024/03/29 05:51:34;;;;;;;0.85;0.00;;;8.30;99.90;;;;;;5017135;28;20389;-75
2024/03/29 05:54:00;;;;;;;0.43;0.00;;;8.30;99.90;;;;;;5016979;28;20121;-75
2024/03/29 05:56:26;;;;;;;1.85;0.10;;;8.30;99.90;;;;;;5017112;28;20026;-75
2024/03/29 05:58:51;;;;;;;1.10;0.28;;;8.40;99.90;;;;;;5016956;28;20097;-74
2024/03/29 06:01:17;;;;;;;0.20;0.00;;;8.40;99.90;;;;;;5016896;28;20018;-74
2024/03/29 06:03:43;;;;;;;0.95;0.00;;;8.40;99.90;;;;;;5016764;28;20463;-74
2024/03/29 06:06:15;;;;;;;0.57;0.00;;;8.40;99.90;;;;;;5016750;28;20036;-74
2024/03/29 06:08:41;;;;;;;2.65;0.52;;;8.30;99.90;;;;;;5015565;28;20025;-74
2024/03/29 06:11:07;;;;;;;0.63;0.00;;;8.40;99.90;;;;;;5015470;28;20393;-74
2024/03/29 06:19:01;;;;;;;0.00;0.00;;;8.30;99.90;;;;;;5016673;28;20033;-73
2024/03/29 06:21:27;;;;;;;0.22;0.00;;;8.20;99.90;;;;;;5015123;28;20470;-74
2024/03/29 06:23:52;;;;;;;1.50;0.00;;;8.20;99.90;;;;;;5016037;28;20030;-75
2024/03/29 06:26:18;;;;;;;0.55;0.00;;;8.30;99.90;;;;;;5014804;28;20037;-73
2024/03/29 06:28:44;;;;;;;0.28;0.00;;;8.30;99.90;;;;;;5015037;28;20056;-74
2024/03/29 06:31:09;;;;;;;3.70;0.00;;;8.20;99.90;;;;;;5016816;28;20479;-74
2024/03/29 06:33:36;;;;;;;1.70;0.00;;;8.30;99.90;;;;;;5016508;28;20034;-75
2024/03/29 06:36:02;;;;;;;2.47;0.00;;;8.30;99.90;;;;;;5016148;28;20022;-75
2024/03/29 06:38:27;;;;;;;2.90;0.30;;;8.40;99.90;;;;;;5015815;28;20022;-82
2024/03/29 06:40:54;;;;;;;0.52;0.15;;;8.40;99.90;;;;;;5017293;28;20021;-74
2024/03/29 06:43:19;;;;;;;0.22;0.10;;;8.40;99.90;;;;;;5014454;28;20397;-74
2024/03/29 06:45:45;;;;;;;1.65;0.00;;;8.40;99.90;;;;;;5014744;28;20030;-77
2024/03/29 06:48:11;;;;;;;0.32;0.00;;;9.00;99.90;;;;;;5014578;28;20505;-76
2024/03/29 06:50:40;;;;;;;0.40;0.00;;;8.40;99.90;;;;;;5016262;28;20109;-76
2024/03/29 06:53:06;;;;;;;;;;;8.40;99.90;;;;;;5014917;28;20018;-77
2024/03/29 06:55:31;;;;;;;1.40;0.00;;;8.40;99.90;;;;;;5014683;28;20365;-76
2024/03/29 06:57:57;;;;;;;3.53;0.35;;;8.50;99.90;;;;;;5015867;28;20026;-77
2024/03/29 07:00:23;;;;;;;1.65;0.10;;;8.50;99.90;;;;;;5015731;28;20018;-76
2024/03/29 07:02:48;;;;;;;1.25;0.40;;;8.60;99.90;;;;;;5014398;28;20026;-76
2024/03/29 07:05:14;;;;;;;0.63;0.00;;;;;;;;;;5016153;28;20466;-76
2024/03/29 07:07:40;;;;;;;1.10;0.10;;;8.70;99.90;;;;;;5014374;28;20460;-76
2024/03/29 07:10:06;;;;;;;2.58;0.00;;;8.60;99.90;;;;;;5015542;28;20105;-75
2024/03/29 07:12:32;;;;;;;1.33;0.00;;;8.70;99.90;;;;;;5015348;28;20092;-75
2024/03/29 07:14:58;;;;;;;1.40;0.00;;;8.70;99.90;;;;;;5015346;28;20026;-76
2024/03/29 07:17:24;;;;;;;3.00;0.00;;;8.70;99.90;;;;;;5015445;28;20037;-76
2024/03/29 07:19:49;;;;;;;2.63;0.00;;;8.70;99.90;;;;;;5014105;28;20068;-76
2024/03/29 07:22:15;;;;;;;0.95;0.00;;;8.60;99.90;;;;;;5015153;28;20124;-76
2024/03/29 07:24:40;;;;;;;1.13;0.00;;;8.70;99.90;;;;;;5013958;28;20026;-76
2024/03/29 07:27:14;;;;;;;0.00;0.00;;;8.70;99.90;;;;;;5013944;28;20060;-76
2024/03/29 07:29:42;;;;;;;2.20;0.00;;;;;;;;;;5016347;28;20117;-76
2024/03/29 07:32:08;;;;;;;0.57;0.00;;;;;;;;;;5015539;28;20026;-76
2024/03/29 07:34:40;;;;;;;0.32;0.00;;;8.90;99.90;;;;;;5015683;28;20692;-76
2024/03/29 07:37:14;;;;;;;2.90;0.28;;;9.00;99.90;;;;;;5017657;28;20026;-79
2024/03/29 07:39:50;;;;;;;2.70;0.10;;;;;;;;;;5018562;28;20030;-79
2024/03/29 07:42:20;;;;;;;0.10;0.00;;;;;;;;;;5018013;28;20026;-79
2024/03/29 07:45:18;;;;;;;0.40;0.10;;;9.30;99.90;;;;;;5016759;28;20038;-79
2024/03/29 07:47:47;;;;;;;0.70;0.00;;;;;;;;;;5018231;28;20069;-79
2024/03/29 07:50:18;;;;;;;0.00;0.00;;;;;;;;;;5017783;28;20022;-79
2024/03/29 07:52:51;;;;;;;1.17;0.35;;;;;;;;;;5018704;28;20108;-78
2024/03/29 07:55:17;;;;;;;0.85;0.00;;;;;;;;;;5018027;28;20429;-78
2024/03/29 07:57:47;;;;;;;1.58;0.00;;;;;;;;;;5017620;28;20022;-78
2024/03/29 08:00:16;;;;;;;2.28;0.00;;;9.90;99.90;;;;;;5017068;28;20481;-79
2024/03/29 08:02:54;;;;;;;0.20;0.00;;;10.00;99.90;;;;;;5017625;28;20515;-78
2024/03/29 08:05:28;;;;;;;0.00;0.00;;;10.10;99.90;;;;;;5016324;28;20044;-78
2024/03/29 08:07:55;;;;;;;0.00;0.00;;;;;;;;;;5015276;28;20481;-76
2024/03/29 08:10:21;;;;;;;0.00;0.00;;;10.20;99.90;;;;;;5016893;28;20022;-79
2024/03/29 08:12:48;;;;;;;0.00;0.00;;;10.20;99.90;;;;;;5015855;28;20022;-77
2024/03/29 08:15:18;;;;;;;0.22;0.00;;;10.20;99.90;;;;;;5015858;28;20029;-77
2024/03/29 08:17:47;;;;;;;0.60;0.00;;;10.20;99.90;;;;;;5016066;28;20465;-77
2024/03/29 08:20:17;;;;;;;0.00;0.00;;;10.20;99.90;;;;;;5014174;28;20049;-77
2024/03/29 08:22:43;;;;;;;1.67;0.00;;;;;;;;;;5000997;28;20057;-78
2024/03/29 08:25:34;;;;;;;1.20;0.00;;;10.10;99.90;;;;;;5010218;28;20033;-76
2024/03/29 08:28:00;;;;;;;0.10;0.00;;;10.10;99.90;;;;;;5011186;28;20051;-77
2024/03/29 08:30:26;;;;;;;0.00;0.00;;;10.30;99.90;;;;;;5010744;28;20566;-76
2024/03/29 08:32:53;;;;;;;1.35;0.00;;;10.70;99.90;;;;;;5013101;28;20080;-76
2024/03/29 08:35:19;;;;;;;0.10;0.00;;;10.40;99.90;;;;;;5008497;28;20094;-76
2024/03/29 08:37:45;;;;;;;0.32;0.00;;;10.40;99.90;;;;;;5011739;28;20026;-75
2024/03/29 08:40:11;;;;;;;0.55;0.00;;;10.60;99.90;;;;;;5009480;28;20113;-77
2024/03/29 08:42:37;;;;;;;0.00;0.00;;;10.50;99.90;;;;;;5010082;28;20397;-78
2024/03/29 08:45:05;;;;;;;0.65;0.00;;;11.50;99.90;;;;;;5010015;28;20535;-78
2024/03/29 08:47:31;;;;;;;2.38;0.00;;;10.60;99.90;;;;;;5010331;28;20026;-78
2024/03/29 08:49:57;;;;;;;0.47;0.00;;;10.60;99.90;;;;;;5010777;28;20032;-78
2024/03/29 08:52:22;;;;;;;0.70;0.20;;;10.60;99.90;;;;;;5011060;28;20061;-77
2024/03/29 08:54:48;;;;;;;0.73;0.00;;;10.60;99.90;;;;;;5012117;28;20061;-77
2024/03/29 08:57:14;;;;;;;0.03;0.00;;;10.60;99.90;;;;;;5009722;28;20032;-78
2024/03/29 08:59:41;;;;;;;1.55;0.00;;;10.80;99.90;;;;;;5012153;28;20084;-78
2024/03/29 09:02:06;;;;;;;2.45;0.55;;;11.00;99.90;;;;;;5009817;28;20037;-78
2024/03/29 09:04:35;;;;;;;0.00;0.00;;;11.10;99.90;;;;;;5011162;28;20033;-78
2024/03/29 09:07:04;;;;;;;0.52;0.00;;;11.50;99.90;;;;;;5010838;28;20036;-78
2024/03/29 09:09:32;;;;;;;0.00;0.00;;;11.40;99.90;;;;;;5009642;28;20034;-78
2024/03/29 09:11:58;;;;;;;2.45;0.00;;;11.50;99.90;;;;;;5008999;28;20029;-77
2024/03/29 09:14:24;;;;;;;0.00;0.00;;;11.40;99.90;;;;;;5009620;28;20030;-77
2024/03/29 09:16:52;;;;;;;0.00;0.00;;;11.30;99.90;;;;;;5011686;28;20014;-77
2024/03/29 09:19:18;;;;;;;0.00;0.00;;;11.30;99.90;;;;;;5010876;28;20425;-77
2024/03/29 09:21:43;;;;;;;0.00;0.00;;;11.50;99.90;;;;;;5011403;28;20029;-77
2024/03/29 09:24:09;;;;;;;0.30;0.00;;;11.50;99.90;;;;;;5010019;28;20505;-78
2024/03/29 09:26:35;;;;;;;0.00;0.00;;;11.60;99.90;;;;;;5011041;28;20026;-78
2024/03/29 09:29:00;;;;;;;0.50;0.00;;;11.60;99.90;;;;;;5010836;28;20116;-78
2024/03/29 09:31:27;;;;;;;0.68;0.00;;;11.60;99.90;;;;;;5011067;28;20033;-78
2024/03/29 09:33:57;;;;;;;0.00;0.00;;;11.60;99.90;;;;;;5014674;28;20088;-77
2024/03/29 09:36:23;;;;;;;0.00;0.00;;;11.50;99.90;;;;;;5011772;28;20354;-76
2024/03/29 09:38:52;;;;;;;2.10;0.00;;;11.50;99.90;;;;;;5013440;28;20022;-77
2024/03/29 09:41:19;;;;;;;2.72;0.43;;;11.50;99.90;;;;;;5008081;28;20032;-77
2024/03/29 09:43:46;;;;;;;0.00;0.00;;;11.50;99.90;;;;;;5012282;28;20025;-77
2024/03/29 09:46:16;;;;;;;1.17;0.00;;;11.20;99.90;;;;;;5010355;28;20132;-78
2024/03/29 09:48:45;;;;;;;1.90;0.00;;;11.10;99.90;;;;;;5013657;28;20675;-78
2024/03/29 09:51:15;;;;;;;2.03;0.03;;;11.00;99.90;;;;;;5009738;28;20061;-78
2024/03/29 09:53:44;;;;;;;0.45;0.00;;;10.80;99.90;;;;;;5013243;28;20559;-78
2024/03/29 09:56:10;;;;;;;3.85;0.32;;;10.80;99.90;;;;;;5010446;28;20038;-78
2024/03/29 09:58:38;;;;;;;1.25;0.30;;;10.80;99.90;;;;;;5012375;28;20084;-77
2024/03/29 10:01:06;;;;;;;0.10;0.00;;;10.80;99.90;;;;;;5010290;28;20423;-77
2024/03/29 10:03:40;;;;;;;0.55;0.00;;;10.90;99.90;;;;;;5011342;28;20393;-78
2024/03/29 10:06:12;;;;;;;1.45;0.20;;;11.00;99.90;;;;;;5010538;28;20129;-78
2024/03/29 10:08:42;;;;;;;1.27;0.00;;;11.40;99.90;;;;;;5011915;28;20328;-78
2024/03/29 10:11:10;;;;;;;2.78;0.00;;;11.70;99.90;;;;;;5012721;28;20057;-75
2024/03/29 10:13:37;;;;;;;0.03;0.00;;;11.70;99.90;;;;;;5010833;28;20056;-77
2024/03/29 10:16:04;;;;;;;0.38;0.00;;;12.10;99.90;;;;;;5012988;28;20018;-79
2024/03/29 10:18:32;;;;;;;0.43;0.00;;;12.40;99.90;;;;;;5010533;28;20021;-78
2024/03/29 10:21:02;;;;;;;;;;;12.50;99.90;;;;;;5011902;28;20033;-78
2024/03/29 10:23:28;;;;;;;0.00;0.00;;;12.50;99.90;;;;;;5009899;28;19905;-76
2024/03/29 10:25:54;;;;;;;0.13;0.00;;;12.60;99.90;;;;;;5012000;28;20056;-76
2024/03/29 10:28:20;;;;;;;1.73;0.00;;;12.70;99.90;;;;;;5013011;28;20037;-77
2024/03/29 10:30:46;;;;;;;0.80;0.00;;;12.70;99.90;;;;;;5013408;28;20026;-76
2024/03/29 10:33:13;;;;;;;0.00;0.00;;;13.00;99.90;;;;;;5014214;28;20034;-77
2024/03/29 10:35:45;;;;;;;1.27;0.00;;;13.10;99.90;;;;;;5013752;28;20041;-77
2024/03/29 10:38:11;;;;;;;0.45;0.00;;;13.20;99.90;;;;;;5013042;28;20133;-76
2024/03/29 10:40:42;;;;;;;0.10;0.00;;;13.30;99.90;;;;;;5011502;28;20030;-76
2024/03/29 10:43:16;;;;;;;0.13;0.00;;;13.20;99.90;;;;;;5012494;28;20428;-76
2024/03/29 10:45:46;;;;;;;1.50;0.08;;;13.10;99.90;;;;;;5011466;28;20034;-76
2024/03/29 10:48:15;;;;;;;0.73;0.00;;;13.10;99.90;;;;;;5011412;28;20081;-76
2024/03/29 10:50:42;;;;;;;0.75;0.00;;;13.10;99.90;;;;;;5011228;28;20038;-77
2024/03/29 10:53:11;;;;;;;0.73;0.00;;;13.30;99.90;;;;;;5010018;28;20441;-76
2024/03/29 10:55:37;;;;;;;0.30;0.00;;;13.40;99.90;;;;;;5014793;28;20050;-77
2024/03/29 10:58:05;;;;;;;0.70;0.03;;;13.40;99.90;;;;;;5012276;28;20113;-76
2024/03/29 11:00:42;;;;;;;0.00;0.00;;;13.30;99.90;;;;;;5013075;28;20041;-76
2024/03/29 11:03:24;;;;;;;0.35;0.05;;;13.50;99.90;;;;;;5011057;28;20038;-76
2024/03/29 11:05:52;;;;;;;0.90;0.00;;;13.70;99.90;;;;;;5013206;28;20022;-76
2024/03/29 11:08:27;;;;;;;1.17;0.00;;;13.70;99.90;;;;;;5008087;28;20053;-75
2024/03/29 11:10:59;;;;;;;0.45;0.08;;;13.80;99.90;;;;;;5010541;28;20124;-75
2024/03/29 11:13:41;;;;;;;1.65;0.00;;;14.00;99.90;;;;;;5011475;28;20501;-75
2024/03/29 11:16:08;;;;;;;1.35;0.00;;;14.10;99.90;;;;;;5011641;28;20072;-76
2024/03/29 11:18:37;;;;;;;0.47;0.22;;;14.30;99.90;;;;;;5013349;28;20323;-76
2024/03/29 11:21:06;;;;;;;;;;;14.20;99.90;;;;;;5011545;28;20025;-76
2024/03/29 11:23:32;;;;;;;0.00;0.00;;;14.20;99.90;;;;;;5011512;28;19952;-76
2024/03/29 11:25:59;;;;;;;0.10;0.00;;;14.10;99.90;;;;;;5011030;28;20029;-75
2024/03/29 11:28:31;;;;;;;0.10;0.00;;;13.90;99.90;;;;;;5011683;28;20442;-75
2024/03/29 11:31:05;;;;;;;1.50;0.00;;;13.70;99.90;;;;;;5011036;28;20406;-75
2024/03/29 11:33:48;;;;;;;0.85;0.20;;;14.20;99.90;;;;;;5011737;28;20025;-78
2024/03/29 11:36:16;;;;;;;0.57;0.00;;;14.30;99.90;;;;;;5010939;28;20125;-76
2024/03/29 11:38:44;;;;;;;0.30;0.00;;;14.90;99.90;;;;;;5011929;28;20088;-77
2024/03/29 11:41:11;;;;;;;0.20;0.00;;;14.90;99.90;;;;;;5011798;28;20066;-77
2024/03/29 11:43:38;;;;;;;1.63;0.00;;;15.60;99.90;;;;;;5011221;28;20149;-77
2024/03/29 11:46:11;;;;;;;0.00;0.00;;;15.60;99.90;;;;;;5011332;28;20036;-77
2024/03/29 11:48:38;;;;;;;0.17;0.00;;;15.90;99.90;;;;;;5009695;28;20038;-77
2024/03/29 11:51:10;;;;;;;0.47;0.00;;;16.00;99.90;;;;;;5009799;28;20048;-77
2024/03/29 11:53:38;;;;;;;0.15;0.00;;;15.70;99.90;;;;;;5011537;28;20508;-77
2024/03/29 11:56:07;;;;;;;0.45;0.00;;;15.60;99.90;;;;;;5010522;28;20048;-76
2024/03/29 11:58:34;;;;;;;0.10;0.00;;;15.50;99.90;;;;;;5008733;28;20041;-76
2024/03/29 12:01:01;;;;;;;0.00;0.00;;;15.10;99.90;;;;;;5010197;28;20489;-76
2024/03/29 12:03:28;;;;;;;0.93;0.00;;;15.00;99.90;;;;;;5008488;28;20018;-74
2024/03/29 12:05:58;;;;;;;0.73;0.00;;;14.90;99.90;;;;;;5009987;28;20485;-75
2024/03/29 12:08:26;;;;;;;0.93;0.00;;;14.80;99.90;;;;;;5009707;28;20048;-73
2024/03/29 12:10:54;;;;;;;0.28;0.00;;;14.70;99.90;;;;;;5014166;28;20021;-75
2024/03/29 12:13:20;;;;;;;1.55;0.00;;;14.70;99.90;;;;;;5011666;28;20064;-73
2024/03/29 12:15:46;;;;;;;1.10;0.00;;;14.80;99.90;;;;;;5012080;28;20022;-75
2024/03/29 12:18:12;;;;;;;0.40;0.00;;;14.80;99.90;;;;;;5012174;28;20025;-75
2024/03/29 12:20:40;;;;;;;4.32;0.08;;;14.90;99.90;;;;;;5011602;28;20033;-73
2024/03/29 12:23:09;;;;;;;1.00;0.00;;;14.60;99.90;;;;;;5011615;28;20464;-74
2024/03/29 12:25:38;;;;;;;1.27;0.00;;;14.70;99.90;;;;;;5012953;28;20026;-75
2024/03/29 12:28:04;;;;;;;0.82;0.00;;;14.60;99.90;;;;;;5012809;28;20080;-74
2024/03/29 12:30:30;;;;;;;0.32;0.00;;;14.60;99.90;;;;;;5011480;28;20018;-73
2024/03/29 12:33:02;;;;;;;0.63;0.10;;;14.70;99.90;;;;;;5012670;28;20541;-73
2024/03/29 12:35:30;;;;;;;1.65;0.20;;;14.80;99.90;;;;;;5011440;28;20092;-74
2024/03/29 12:38:02;;;;;;;1.80;0.43;;;15.20;99.90;;;;;;5011355;28;20385;-73
2024/03/29 12:40:37;;;;;;;0.75;0.10;;;15.20;99.90;;;;;;5011891;28;20260;-73
2024/03/29 12:43:06;;;;;;;0.68;0.10;;;15.30;99.90;;;;;;5012865;28;20037;-74
2024/03/29 12:45:32;;;;;;;0.20;0.13;;;15.40;99.90;;;;;;5011238;28;20018;-74
2024/03/29 12:47:58;;;;;;;0.52;0.30;;;15.30;99.90;;;;;;5011979;28;20556;-74
2024/03/29 12:50:28;;;;;;;0.20;0.20;;;15.20;99.90;;;;;;5012051;28;20176;-74
2024/03/29 12:52:58;;;;;;;1.33;0.20;;;15.30;99.90;;;;;;5012374;28;20092;-75
2024/03/29 12:55:38;;;;;;;0.70;0.38;;;15.30;99.90;;;;;;5010983;28;20030;-75
2024/03/29 12:58:09;;;;;;;1.25;0.40;;;15.20;99.90;;;;;;5011198;28;20029;-75
2024/03/29 13:00:36;;;;;;;0.30;0.17;;;15.20;99.90;;;;;;5010838;28;20034;-75
2024/03/29 13:03:03;;;;;;;0.10;0.10;;;15.20;99.90;;;;;;5011150;28;20026;-75
2024/03/29 13:05:34;;;;;;;1.35;0.10;;;15.20;99.90;;;;;;5011232;28;20490;-75
2024/03/29 13:08:04;;;;;;;1.35;0.10;;;15.30;99.90;;;;;;5011778;28;20044;-75
2024/03/29 13:10:30;;;;;;;1.85;0.13;;;15.50;99.90;;;;;;5010919;28;20025;-74